Time;durP1;ratioP1;P1;durP2;ratioP2;P2;SDS_P1;SDS_P2;PMS_P1;PMS_P2;Temp;Humidity;BMP_temperature;BMP_pressure;BME280_temperature;BME280_humidity;BME280_pressure;Samples;Min_cycle;Max_cycle;Signal;HPM_P1;HPM_P2
2024/01/16 00:01:43;;;;;;;;;;;13.40;99.90;;;;;;5073461;28;19908;-64
2024/01/16 00:04:12;;;;;;;;;;;13.40;99.90;;;;;;5073176;28;19915;-64
2024/01/16 00:06:41;;;;;;;;;;;13.40;99.90;;;;;;5055032;28;20053;-63
2024/01/16 00:09:07;;;;;;;;;;;13.40;99.90;;;;;;5054926;28;20069;-63
2024/01/16 00:11:33;;;;;;;;;;;13.40;99.90;;;;;;5073285;28;19909;-66
2024/01/16 00:13:58;;;;;;;;;;;13.40;99.90;;;;;;5073107;28;20299;-64
2024/01/16 00:16:25;;;;;;;;;;;13.40;99.90;;;;;;5054846;28;19948;-63
2024/01/16 00:18:51;;;;;;;;;;;13.50;99.90;;;;;;5072883;28;19915;-64
2024/01/16 00:21:16;;;;;;;;;;;13.50;99.90;;;;;;5072804;28;19956;-65
2024/01/16 00:23:42;;;;;;;;;;;13.50;99.90;;;;;;5071567;28;19909;-64
2024/01/16 00:26:08;;;;;;;;;;;13.50;99.90;;;;;;5072878;28;19935;-64
2024/01/16 00:28:35;;;;;;;;;;;13.50;99.90;;;;;;5072857;28;20007;-64
2024/01/16 00:31:00;;;;;;;;;;;13.50;99.90;;;;;;5071518;28;19924;-64
2024/01/16 00:33:27;;;;;;;;;;;13.50;99.90;;;;;;5071209;28;19924;-63
2024/01/16 00:35:53;;;;;;;;;;;13.50;99.90;;;;;;5072504;28;20007;-64
2024/01/16 00:38:19;;;;;;;;;;;13.50;99.90;;;;;;5072646;28;19959;-66
2024/01/16 00:40:45;;;;;;;;;;;13.50;99.90;;;;;;5054559;28;20298;-65
2024/01/16 00:43:12;;;;;;;;;;;13.50;99.90;;;;;;5072472;28;20242;-65
2024/01/16 00:45:38;;;;;;;;;;;13.60;99.90;;;;;;5072771;28;19915;-65
2024/01/16 00:48:05;;;;;;;;;;;13.60;99.90;;;;;;5072166;28;19928;-65
2024/01/16 00:50:31;;;;;;;;;;;13.70;99.90;;;;;;5054056;28;19912;-63
2024/01/16 00:52:57;;;;;;;;;;;13.60;99.90;;;;;;5072662;28;20061;-65
2024/01/16 00:55:23;;;;;;;;;;;13.60;99.90;;;;;;5072664;28;19908;-65
2024/01/16 00:57:49;;;;;;;;;;;13.60;99.90;;;;;;5072446;28;19908;-65
2024/01/16 01:00:15;;;;;;;;;;;13.50;99.90;;;;;;5072673;28;19999;-65
2024/01/16 01:02:41;;;;;;;;;;;13.50;99.90;;;;;;5071550;28;19931;-65
2024/01/16 01:05:07;;;;;;;;;;;13.50;99.90;;;;;;5072244;28;19909;-62
2024/01/16 01:07:32;;;;;;;;;;;13.50;99.90;;;;;;5071719;28;20210;-64
2024/01/16 01:09:58;;;;;;;;;;;13.40;99.90;;;;;;5071957;28;19978;-64
2024/01/16 01:12:24;;;;;;;;;;;13.50;99.90;;;;;;5071830;28;19908;-64
2024/01/16 01:14:50;;;;;;;;;;;13.50;99.90;;;;;;5071764;28;20379;-63
2024/01/16 01:17:16;;;;;;;;;;;13.60;99.90;;;;;;5053624;28;20355;-64
2024/01/16 01:19:41;;;;;;;;;;;13.60;99.90;;;;;;5071586;28;19915;-64
2024/01/16 01:22:07;;;;;;;;;;;13.60;99.90;;;;;;5053434;28;19957;-64
2024/01/16 01:24:33;;;;;;;;;;;13.70;99.90;;;;;;5071872;28;20003;-64
2024/01/16 01:26:59;;;;;;;;;;;13.70;99.90;;;;;;5071468;28;19964;-64
2024/01/16 01:29:25;;;;;;;;;;;13.70;99.90;;;;;;5071663;28;19916;-64
2024/01/16 01:31:51;;;;;;;;;;;13.80;99.90;;;;;;5053299;28;19909;-64
2024/01/16 01:34:16;;;;;;;;;;;13.80;99.90;;;;;;5071296;28;19991;-64
2024/01/16 01:36:43;;;;;;;;;;;13.80;99.90;;;;;;5071166;28;19909;-64
2024/01/16 01:39:09;;;;;;;;;;;13.80;99.90;;;;;;5071131;28;19927;-63
2024/01/16 01:41:35;;;;;;;;;;;13.80;99.90;;;;;;5071011;28;19908;-63
2024/01/16 01:44:01;;;;;;;;;;;13.80;99.90;;;;;;5052922;28;19915;-63
2024/01/16 01:46:27;;;;;;;;;;;13.80;99.90;;;;;;5071277;28;19912;-63
2024/01/16 01:48:54;;;;;;;;;;;13.80;99.90;;;;;;5070323;28;19967;-60
2024/01/16 01:51:24;;;;;;;;;;;13.90;99.90;;;;;;5067392;28;20472;-63
2024/01/16 01:53:51;;;;;;;;;;;13.90;99.90;;;;;;5070524;28;19996;-63
2024/01/16 01:56:18;;;;;;;;;;;13.90;99.90;;;;;;5070670;28;19912;-64
2024/01/16 01:58:46;;;;;;;;;;;13.90;99.90;;;;;;5054421;28;19913;-63
2024/01/16 02:01:13;;;;;;;;;;;14.00;99.90;;;;;;5070698;28;19982;-60
2024/01/16 02:03:42;;;;;;;;;;;13.90;99.90;;;;;;5052325;28;20022;-64
2024/01/16 02:06:09;;;;;;;;;;;13.90;99.90;;;;;;5070175;28;20372;-64
2024/01/16 02:08:36;;;;;;;;;;;14.00;99.90;;;;;;5070564;28;20360;-65
2024/01/16 02:11:01;;;;;;;;;;;14.00;99.90;;;;;;5070579;28;19960;-64
2024/01/16 02:13:27;;;;;;;;;;;13.90;99.90;;;;;;5070422;28;19908;-65
2024/01/16 02:15:54;;;;;;;;;;;14.00;99.90;;;;;;5071165;28;19908;-65
2024/01/16 02:18:20;;;;;;;;;;;14.00;99.90;;;;;;5070607;28;19965;-64
2024/01/16 02:20:47;;;;;;;;;;;14.00;99.90;;;;;;5070356;28;19995;-65
2024/01/16 02:23:14;;;;;;;;;;;14.10;99.90;;;;;;5070461;28;19908;-64
2024/01/16 02:25:42;;;;;;;;;;;14.00;99.90;;;;;;5070299;28;20280;-64
2024/01/16 02:28:08;;;;;;;;;;;14.00;99.90;;;;;;5070724;28;20002;-65
2024/01/16 02:30:34;;;;;;;;;;;14.00;99.90;;;;;;5070395;28;20009;-64
2024/01/16 02:33:00;;;;;;;;;;;14.00;99.90;;;;;;5070461;28;19908;-65
2024/01/16 02:35:26;;;;;;;;;;;14.00;99.90;;;;;;5070295;28;19920;-65
2024/01/16 02:37:51;;;;;;;;;;;14.00;99.90;;;;;;5070274;28;19912;-64
2024/01/16 02:40:17;;;;;;;;;;;14.00;99.90;;;;;;5070138;28;19927;-63
2024/01/16 02:42:43;;;;;;;;;;;14.00;99.90;;;;;;5052133;28;19920;-62
2024/01/16 02:45:09;;;;;;;;;;;14.10;99.90;;;;;;5052043;28;19908;-63
2024/01/16 02:47:35;;;;;;;;;;;14.10;99.90;;;;;;5070399;28;20336;-63
2024/01/16 02:50:01;;;;;;;;;;;14.10;99.90;;;;;;5070124;28;20025;-64
2024/01/16 02:52:27;;;;;;;;;;;14.10;99.90;;;;;;5070064;28;20062;-64
2024/01/16 02:54:52;;;;;;;;;;;14.10;99.90;;;;;;5070380;28;19915;-64
2024/01/16 02:57:18;;;;;;;;;;;14.10;99.90;;;;;;5070066;28;19923;-65
2024/01/16 02:59:44;;;;;;;;;;;14.10;99.90;;;;;;5070388;28;19909;-64
2024/01/16 03:02:11;;;;;;;;;;;14.10;99.90;;;;;;5070261;28;19912;-64
2024/01/16 03:04:37;;;;;;;;;;;14.10;99.90;;;;;;5052172;28;19909;-64
2024/01/16 03:07:03;;;;;;;;;;;14.10;99.90;;;;;;5068967;28;19932;-64
2024/01/16 03:09:29;;;;;;;;;;;14.10;99.90;;;;;;5052291;28;19927;-62
2024/01/16 03:11:55;;;;;;;;;;;14.20;99.90;;;;;;5070010;28;19908;-64
2024/01/16 03:14:21;;;;;;;;;;;14.20;99.90;;;;;;5070051;28;19913;-64
2024/01/16 03:16:47;;;;;;;;;;;14.30;99.90;;;;;;5051844;28;19961;-64
2024/01/16 03:19:13;;;;;;;;;;;14.20;99.90;;;;;;5051817;28;19909;-64
2024/01/16 03:21:39;;;;;;;;;;;14.30;99.90;;;;;;5051554;28;20382;-64
2024/01/16 03:24:05;;;;;;;;;;;14.30;99.90;;;;;;5070134;28;20038;-64
2024/01/16 03:26:32;;;;;;;;;;;14.30;99.90;;;;;;5072031;28;19999;-64
2024/01/16 03:28:58;;;;;;;;;;;14.40;99.90;;;;;;5073896;28;19909;-64
2024/01/16 03:31:24;;;;;;;;;;;14.30;99.90;;;;;;5073550;28;20005;-63
2024/01/16 03:33:50;;;;;;;;;;;14.30;99.90;;;;;;5073616;28;20340;-64
2024/01/16 03:36:16;;;;;;;;;;;14.40;99.90;;;;;;5073530;28;19919;-64
2024/01/16 03:38:42;;;;;;;;;;;14.40;99.90;;;;;;5055070;28;19920;-64
2024/01/16 03:41:10;;;;;;;;;;;14.40;99.90;;;;;;5073339;28;19913;-64
2024/01/16 03:43:36;;;;;;;;;;;14.50;99.90;;;;;;5073215;28;19908;-64
2024/01/16 03:46:02;;;;;;;;;;;14.50;99.90;;;;;;5073062;28;19931;-64
2024/01/16 03:48:28;;;;;;;;;;;14.40;99.90;;;;;;5073183;28;19913;-65
2024/01/16 03:50:55;;;;;;;;;;;14.40;99.90;;;;;;5072831;28;19908;-64
2024/01/16 03:53:21;;;;;;;;;;;14.40;99.90;;;;;;5055144;28;20245;-65
2024/01/16 03:55:49;;;;;;;;;;;14.40;99.90;;;;;;5073323;28;19958;-64
2024/01/16 03:58:15;;;;;;;;;;;14.50;99.90;;;;;;5073296;28;19924;-65
2024/01/16 04:00:41;;;;;;;;;;;14.50;99.90;;;;;;5055324;28;19912;-65
2024/01/16 04:03:07;;;;;;;;;;;14.50;99.90;;;;;;5073381;28;19915;-64
2024/01/16 04:05:33;;;;;;;;;;;14.50;99.90;;;;;;5071988;28;20262;-65
2024/01/16 04:07:59;;;;;;;;;;;14.50;99.90;;;;;;5073181;28;20289;-64
2024/01/16 04:10:25;;;;;;;;;;;14.50;99.90;;;;;;5073466;28;19909;-64
2024/01/16 04:12:51;;;;;;;;;;;14.50;99.90;;;;;;5073097;28;19912;-65
2024/01/16 04:15:16;;;;;;;;;;;14.50;99.90;;;;;;5073421;28;19909;-65
2024/01/16 04:17:43;;;;;;;;;;;14.50;99.90;;;;;;5072948;28;20254;-65
2024/01/16 04:20:09;;;;;;;;;;;14.50;99.90;;;;;;5073361;28;19908;-65
2024/01/16 04:22:35;;;;;;;;;;;14.40;99.90;;;;;;5072917;28;19961;-65
2024/01/16 04:25:01;;;;;;;;;;;14.40;99.90;;;;;;5072512;28;20322;-64
2024/01/16 04:27:27;;;;;;;;;;;14.40;99.90;;;;;;5074539;28;19917;-65
2024/01/16 04:29:53;;;;;;;;;;;14.30;99.90;;;;;;5074074;28;19909;-63
2024/01/16 04:32:19;;;;;;;;;;;14.30;99.90;;;;;;5073970;28;20004;-65
2024/01/16 04:34:44;;;;;;;;;;;14.30;99.90;;;;;;5073725;28;19915;-65
2024/01/16 04:37:10;;;;;;;;;;;14.40;99.90;;;;;;5072306;28;19928;-65
2024/01/16 04:39:36;;;;;;;;;;;14.30;99.90;;;;;;5073530;28;20307;-64
2024/01/16 04:42:03;;;;;;;;;;;14.40;99.90;;;;;;5055749;28;19908;-65
2024/01/16 04:44:30;;;;;;;;;;;14.40;99.90;;;;;;5055367;28;19912;-65
2024/01/16 04:46:56;;;;;;;;;;;14.40;99.90;;;;;;5073545;28;19936;-64
2024/01/16 04:49:22;;;;;;;;;;;14.40;99.90;;;;;;5073803;28;19915;-65
2024/01/16 04:51:47;;;;;;;;;;;14.30;99.90;;;;;;5073481;28;19909;-65
2024/01/16 04:54:13;;;;;;;;;;;14.40;99.90;;;;;;5070401;28;20020;-64
2024/01/16 04:56:39;;;;;;;;;;;14.40;99.90;;;;;;5075082;28;19916;-65
2024/01/16 04:59:05;;;;;;;;;;;14.50;99.90;;;;;;5074554;28;19915;-64
2024/01/16 05:01:31;;;;;;;;;;;14.50;99.90;;;;;;5074477;28;20260;-64
2024/01/16 05:03:57;;;;;;;;;;;14.50;99.90;;;;;;5074378;28;20007;-65
2024/01/16 05:06:22;;;;;;;;;;;14.50;99.90;;;;;;5074200;28;19919;-65
2024/01/16 05:08:48;;;;;;;;;;;14.50;99.90;;;;;;5074301;28;20307;-65
2024/01/16 05:11:14;;;;;;;;;;;14.50;99.90;;;;;;5074592;28;19912;-65
2024/01/16 05:13:40;;;;;;;;;;;14.60;99.90;;;;;;5074148;28;20011;-66
2024/01/16 05:16:06;;;;;;;;;;;14.60;99.90;;;;;;5074318;28;19909;-64
2024/01/16 05:18:34;;;;;;;;;;;14.60;99.90;;;;;;5074637;28;19916;-63
2024/01/16 05:21:02;;;;;;;;;;;14.60;99.90;;;;;;5056529;28;19962;-65
2024/01/16 05:23:27;;;;;;;;;;;14.50;99.90;;;;;;5075047;28;19959;-64
2024/01/16 05:25:53;;;;;;;;;;;14.50;99.90;;;;;;5074379;28;19964;-64
2024/01/16 05:28:19;;;;;;;;;;;14.40;99.90;;;;;;5074553;28;19909;-64
2024/01/16 05:30:45;;;;;;;;;;;14.50;99.90;;;;;;5074393;28;19915;-64
2024/01/16 05:33:11;;;;;;;;;;;14.50;99.90;;;;;;5074355;28;20257;-64
2024/01/16 05:35:37;;;;;;;;;;;14.50;99.90;;;;;;5074322;28;19909;-64
2024/01/16 05:38:04;;;;;;;;;;;14.50;99.90;;;;;;5073964;28;19923;-64
2024/01/16 05:40:29;;;;;;;;;;;14.60;99.90;;;;;;5074516;28;19935;-64
2024/01/16 05:42:56;;;;;;;;;;;14.60;99.90;;;;;;5074072;28;20380;-64
2024/01/16 05:45:22;;;;;;;;;;;14.60;99.90;;;;;;5073264;28;19912;-64
2024/01/16 05:47:47;;;;;;;;;;;14.60;99.90;;;;;;5072445;28;19920;-65
2024/01/16 05:50:16;;;;;;;;;;;14.60;99.90;;;;;;5074110;28;19908;-64
2024/01/16 05:52:42;;;;;;;;;;;14.60;99.90;;;;;;5073782;28;19915;-64
2024/01/16 05:55:08;;;;;;;;;;;14.70;99.90;;;;;;5073895;28;19909;-64
2024/01/16 05:57:34;;;;;;;;;;;14.90;99.90;;;;;;5073844;28;19916;-65
2024/01/16 06:00:03;;;;;;;;;;;14.80;99.90;;;;;;5072424;28;19909;-65
2024/01/16 06:02:29;;;;;;;;;;;15.30;99.90;;;;;;5073941;28;19915;-65
2024/01/16 06:04:56;;;;;;;;;;;15.30;99.90;;;;;;5073877;28;19915;-65
2024/01/16 06:07:22;;;;;;;;;;;15.30;99.90;;;;;;5073403;28;19920;-65
2024/01/16 06:09:47;;;;;;;;;;;15.30;99.90;;;;;;5073615;28;19912;-65
2024/01/16 06:12:13;;;;;;;;;;;15.20;99.90;;;;;;5073360;28;19909;-64
2024/01/16 06:14:39;;;;;;;;;;;15.20;99.90;;;;;;5073336;28;20339;-65
2024/01/16 06:17:08;;;;;;;;;;;15.20;99.90;;;;;;5073129;28;19952;-65
2024/01/16 06:19:33;;;;;;;;;;;15.10;99.90;;;;;;5073794;28;19913;-65
2024/01/16 06:22:00;;;;;;;;;;;15.10;99.90;;;;;;5072602;28;19998;-66
2024/01/16 06:24:26;;;;;;;;;;;15.00;99.90;;;;;;5072904;28;19919;-66
2024/01/16 06:26:52;;;;;;;;;;;15.00;99.90;;;;;;5073206;28;19916;-65
2024/01/16 06:29:18;;;;;;;;;;;14.90;99.90;;;;;;5073619;28;19915;-66
2024/01/16 06:31:44;;;;;;;;;;;15.10;99.90;;;;;;5072846;28;19959;-66
2024/01/16 06:34:10;;;;;;;;;;;15.10;99.90;;;;;;5054443;28;19909;-66
2024/01/16 06:36:36;;;;;;;;;;;15.10;99.90;;;;;;5072609;28;20353;-67
2024/01/16 06:39:02;;;;;;;;;;;15.10;99.90;;;;;;5072627;28;19966;-66
2024/01/16 06:41:28;;;;;;;;;;;15.10;99.90;;;;;;5054598;28;19949;-67
2024/01/16 06:43:55;;;;;;;;;;;15.10;99.90;;;;;;5054444;28;19916;-67
2024/01/16 06:46:21;;;;;;;;;;;15.10;99.90;;;;;;5072254;28;20026;-66
2024/01/16 06:48:48;;;;;;;;;;;15.20;99.90;;;;;;5072376;28;19920;-66
2024/01/16 06:51:15;;;;;;;;;;;15.20;99.90;;;;;;5072058;28;19908;-65
2024/01/16 06:53:41;;;;;;;;;;;15.20;99.90;;;;;;5072275;28;19912;-66
2024/01/16 06:56:08;;;;;;;;;;;15.30;99.90;;;;;;5071343;28;20009;-67
2024/01/16 06:58:35;;;;;;;;;;;15.30;99.90;;;;;;5071669;28;19916;-67
2024/01/16 07:01:01;;;;;;;;;;;15.30;99.90;;;;;;5073494;28;19909;-68
2024/01/16 07:03:26;;;;;;;;;;;15.20;99.90;;;;;;5075997;28;19909;-67
2024/01/16 07:05:52;;;;;;;;;;;15.40;99.90;;;;;;5076322;28;19953;-67
2024/01/16 07:08:18;;;;;;;;;;;15.40;99.90;;;;;;5075973;28;19965;-68
2024/01/16 07:10:44;;;;;;;;;;;15.50;99.90;;;;;;5076133;28;19908;-67
2024/01/16 07:13:10;;;;;;;;;;;15.50;99.90;;;;;;5075911;28;19912;-69
2024/01/16 07:15:44;;;;;;;;;;;15.60;99.90;;;;;;5064470;28;19919;-63
2024/01/16 07:18:10;;;;;;;;;;;15.50;99.90;;;;;;5077487;28;19908;-66
2024/01/16 07:20:35;;;;;;;;;;;15.50;99.90;;;;;;5061099;28;19931;-68
2024/01/16 07:23:02;;;;;;;;;;;15.60;99.90;;;;;;5075380;28;20019;-68
2024/01/16 07:25:28;;;;;;;;;;;15.60;99.90;;;;;;5074775;28;19909;-68
2024/01/16 07:27:54;;;;;;;;;;;15.60;99.90;;;;;;5075567;28;20322;-67
2024/01/16 07:30:20;;;;;;;;;;;15.60;99.90;;;;;;5074347;28;19910;-66
2024/01/16 07:32:45;;;;;;;;;;;15.70;99.90;;;;;;5075842;28;19915;-67
2024/01/16 07:35:11;;;;;;;;;;;15.70;99.90;;;;;;5061814;28;19913;-65
2024/01/16 07:37:37;;;;;;;;;;;15.70;99.90;;;;;;5075584;28;19912;-68
2024/01/16 07:40:05;;;;;;;;;;;15.60;99.90;;;;;;5075374;28;19921;-67
2024/01/16 07:42:34;;;;;;;;;;;15.70;99.90;;;;;;5057557;28;20001;-66
2024/01/16 07:45:04;;;;;;;;;;;15.70;99.90;;;;;;5075758;28;20323;-68
2024/01/16 07:47:32;;;;;;;;;;;15.80;99.90;;;;;;5076109;28;20032;-68
2024/01/16 07:49:59;;;;;;;;;;;15.70;99.90;;;;;;5075818;28;19940;-67
2024/01/16 07:52:25;;;;;;;;;;;15.80;99.90;;;;;;5074907;28;20299;-70
2024/01/16 07:54:51;;;;;;;;;;;15.80;99.90;;;;;;5072360;28;20109;-67
2024/01/16 07:57:17;;;;;;;;;;;15.80;99.90;;;;;;5059863;28;19931;-68
2024/01/16 07:59:42;;;;;;;;;;;15.80;99.90;;;;;;5075954;28;19909;-67
2024/01/16 08:02:09;;;;;;;;;;;15.70;99.90;;;;;;5075122;28;20426;-68
2024/01/16 08:04:35;;;;;;;;;;;15.80;99.90;;;;;;5074702;28;19944;-68
2024/01/16 08:07:00;;;;;;;;;;;15.80;99.90;;;;;;5074840;28;19970;-65
2024/01/16 08:09:26;;;;;;;;;;;15.80;99.90;;;;;;5074240;28;20380;-67
2024/01/16 08:11:52;;;;;;;;;;;15.80;99.90;;;;;;5073932;28;19935;-67
2024/01/16 08:14:18;;;;;;;;;;;15.90;99.90;;;;;;5073022;28;19917;-67
2024/01/16 08:16:44;;;;;;;;;;;15.80;99.90;;;;;;5061285;28;19976;-67
2024/01/16 08:19:10;;;;;;;;;;;15.90;99.90;;;;;;5073868;28;20417;-67
2024/01/16 08:21:36;;;;;;;;;;;15.90;99.90;;;;;;5074830;28;19969;-67
2024/01/16 08:24:02;;;;;;;;;;;15.90;99.90;;;;;;5073673;28;20292;-67
2024/01/16 08:26:28;;;;;;;;;;;16.00;99.90;;;;;;5075102;28;19928;-68
2024/01/16 08:28:54;;;;;;;;;;;16.10;99.90;;;;;;5073329;28;19913;-68
2024/01/16 08:31:20;;;;;;;;;;;16.20;99.90;;;;;;5074082;28;19908;-69
2024/01/16 08:33:46;;;;;;;;;;;16.30;99.90;;;;;;5073479;28;19916;-68
2024/01/16 08:36:11;;;;;;;;;;;16.50;99.90;;;;;;5074459;28;20340;-67
2024/01/16 08:38:37;;;;;;;;;;;16.60;99.90;;;;;;5074793;28;19966;-69
2024/01/16 08:41:06;;;;;;;;;;;16.70;99.90;;;;;;5072886;28;20005;-67
2024/01/16 08:43:35;;;;;;;;;;;16.70;99.90;;;;;;5062726;28;20272;-67
2024/01/16 08:46:00;;;;;;;;;;;16.70;99.90;;;;;;5071536;28;19917;-66
2024/01/16 08:48:27;;;;;;;;;;;16.70;99.90;;;;;;5073150;28;19917;-64
2024/01/16 08:50:54;;;;;;;;;;;16.80;99.90;;;;;;5072231;28;20376;-67
2024/01/16 08:53:22;;;;;;;;;;;16.80;99.90;;;;;;5074131;28;20315;-66
2024/01/16 08:55:48;;;;;;;;;;;16.80;99.90;;;;;;5074325;28;19908;-67
2024/01/16 08:58:14;;;;;;;;;;;16.80;99.90;;;;;;5074163;28;20313;-67
2024/01/16 09:00:40;;;;;;;;;;;16.80;99.90;;;;;;5074142;28;19909;-68
2024/01/16 09:03:07;;;;;;;;;;;16.80;99.90;;;;;;5074004;28;19908;-66
2024/01/16 09:05:38;;;;;;;;;;;16.80;99.90;;;;;;5074036;28;19912;-68
2024/01/16 09:08:04;;;;;;;;;;;16.60;99.90;;;;;;5056800;28;19921;-68
2024/01/16 09:10:31;;;;;;;;;;;16.60;99.90;;;;;;5055617;28;19912;-69
2024/01/16 09:12:57;;;;;;;;;;;16.50;99.90;;;;;;5055956;28;19909;-70
2024/01/16 09:15:22;;;;;;;;;;;16.50;99.90;;;;;;5074241;28;19931;-71
2024/01/16 09:17:48;;;;;;;;;;;16.40;99.90;;;;;;5055639;28;19955;-73
2024/01/16 09:20:14;;;;;;;;;;;16.60;99.90;;;;;;5056014;28;20059;-71
2024/01/16 09:22:40;;;;;;;;;;;16.80;99.90;;;;;;5073624;28;19915;-70
2024/01/16 09:25:09;;;;;;;;;;;17.10;99.90;;;;;;5054305;28;19999;-70
2024/01/16 09:27:35;;;;;;;;;;;17.40;99.90;;;;;;5072572;28;20087;-71
2024/01/16 09:30:01;;;;;;;;;;;17.70;99.90;;;;;;5072900;28;20012;-71
2024/01/16 09:32:27;;;;;;;;;;;18.10;99.90;;;;;;5055404;28;20011;-71
2024/01/16 09:34:53;;;;;;;;;;;18.30;99.90;;;;;;5072544;28;19934;-71
2024/01/16 09:37:19;;;;;;;;;;;18.50;99.90;;;;;;5072534;28;19920;-71
2024/01/16 09:39:45;;;;;;;;;;;18.70;99.90;;;;;;5054230;28;19932;-70
2024/01/16 09:42:11;;;;;;;;;;;18.90;99.90;;;;;;5072283;28;20373;-70
2024/01/16 09:44:37;;;;;;;;;;;19.00;99.90;;;;;;5072430;28;19931;-72
2024/01/16 09:47:03;;;;;;;;;;;18.90;99.90;;;;;;5071886;28;19939;-69
2024/01/16 09:49:29;;;;;;;;;;;19.00;99.90;;;;;;5071242;28;19908;-71
2024/01/16 09:51:55;;;;;;;;;;;19.10;99.90;;;;;;5071376;28;19908;-70
2024/01/16 09:54:21;;;;;;;;;;;19.30;99.90;;;;;;5072179;28;20292;-70
2024/01/16 09:56:49;;;;;;;;;;;19.40;99.90;;;;;;5072535;28;20004;-70
2024/01/16 09:59:17;;;;;;;;;;;19.50;99.90;;;;;;5072012;28;19915;-71
2024/01/16 10:01:43;;;;;;;;;;;19.70;99.90;;;;;;5072113;28;20337;-71
2024/01/16 10:04:09;;;;;;;;;;;19.80;99.90;;;;;;5071996;28;19908;-71
2024/01/16 10:06:37;;;;;;;;;;;19.90;99.90;;;;;;5071833;28;20030;-71
2024/01/16 10:09:02;;;;;;;;;;;20.00;99.90;;;;;;5072252;28;19966;-71
2024/01/16 10:11:29;;;;;;;;;;;20.00;99.90;;;;;;5054826;28;20333;-72
2024/01/16 10:13:55;;;;;;;;;;;19.80;99.90;;;;;;5071941;28;20003;-70
2024/01/16 10:16:21;;;;;;;;;;;19.60;99.90;;;;;;5053738;28;20364;-71
2024/01/16 10:18:47;;;;;;;;;;;19.50;99.90;;;;;;5071912;28;20011;-71
2024/01/16 10:21:22;;;;;;;;;;;19.50;99.90;;;;;;5072235;28;19952;-68
2024/01/16 10:23:49;;;;;;;;;;;19.40;99.90;;;;;;5072108;28;20012;-71
2024/01/16 10:26:15;;;;;;;;;;;19.30;99.90;;;;;;5071700;28;19919;-72
2024/01/16 10:28:42;;;;;;;;;;;19.40;99.90;;;;;;5071748;28;19947;-72
2024/01/16 10:31:08;;;;;;;;;;;19.50;99.90;;;;;;5054020;28;20361;-68
2024/01/16 10:33:35;;;;;;;;;;;19.60;99.90;;;;;;5053654;28;19909;-70
2024/01/16 10:36:13;;;;;;;;;;;19.70;99.90;;;;;;5071743;28;20353;-70
2024/01/16 10:38:40;;;;;;;;;;;19.70;99.90;;;;;;5071336;28;19920;-70
2024/01/16 10:41:08;;;;;;;;;;;19.80;99.90;;;;;;5071918;28;19917;-70
2024/01/16 10:43:34;;;;;;;;;;;19.60;99.90;;;;;;5053366;28;20252;-70
2024/01/16 10:46:08;;;;;;;;;;;19.50;99.90;;;;;;5071758;28;19908;-69
2024/01/16 10:48:34;;;;;;;;;;;19.40;99.90;;;;;;5053297;28;19908;-69
2024/01/16 10:51:01;;;;;;;;;;;19.20;99.90;;;;;;5071960;28;19978;-69
2024/01/16 10:53:29;;;;;;;;;;;19.00;99.90;;;;;;5071146;28;19916;-71
2024/01/16 10:55:57;;;;;;;;;;;19.00;99.90;;;;;;5071305;28;19908;-70
2024/01/16 10:58:23;;;;;;;;;;;19.20;99.90;;;;;;5071675;28;19912;-70
2024/01/16 11:00:51;;;;;;;;;;;19.50;99.90;;;;;;5071596;28;19909;-70
2024/01/16 11:03:35;;;;;;;;;;;19.70;99.90;;;;;;5053269;28;20054;-67
2024/01/16 11:06:01;;;;;;;;;;;19.90;99.90;;;;;;5071638;28;20333;-70
2024/01/16 11:08:30;;;;;;;;;;;20.10;99.90;;;;;;5071215;28;19956;-70
2024/01/16 11:10:58;;;;;;;;;;;20.40;99.90;;;;;;5071411;28;19934;-71
2024/01/16 11:13:25;;;;;;;;;;;20.50;99.90;;;;;;5071226;28;20367;-70
2024/01/16 11:15:50;;;;;;;;;;;20.70;99.90;;;;;;5057298;28;19963;-71
2024/01/16 11:18:17;;;;;;;;;;;20.90;99.90;;;;;;5071304;28;19909;-71
2024/01/16 11:20:43;;;;;;;;;;;20.90;99.90;;;;;;5071703;28;19919;-70
2024/01/16 11:23:10;;;;;;;;;;;20.90;99.90;;;;;;5070958;28;19909;-71
2024/01/16 11:25:36;;;;;;;;;;;21.00;99.90;;;;;;5071566;28;20305;-71
2024/01/16 11:28:12;;;;;;;;;;;20.90;99.90;;;;;;5071040;28;19930;-70
2024/01/16 11:30:38;;;;;;;;;;;20.70;99.90;;;;;;5071390;28;20045;-70
2024/01/16 11:33:07;;;;;;;;;;;20.90;99.90;;;;;;5071201;28;19948;-71
2024/01/16 11:35:40;;;;;;;;;;;20.90;99.90;;;;;;5070914;28;20047;-69
2024/01/16 11:38:21;;;;;;;;;;;20.80;99.90;;;;;;5070495;28;19954;-70
2024/01/16 11:40:47;;;;;;;;;;;21.00;99.90;;;;;;5070946;28;20475;-70
2024/01/16 11:43:31;;;;;;;;;;;21.20;99.90;;;;;;5071022;28;19916;-70
2024/01/16 11:46:01;;;;;;;;;;;21.40;99.90;;;;;;5070798;28;19966;-70
2024/01/16 11:48:27;;;;;;;;;;;21.20;99.90;;;;;;5074140;28;19948;-71
2024/01/16 11:50:53;;;;;;;;;;;21.10;99.90;;;;;;5073936;28;19912;-69
2024/01/16 11:53:39;;;;;;;;;;;21.10;99.90;;;;;;5074776;28;19909;-70
2024/01/16 11:56:24;;;;;;;;;;;21.00;99.90;;;;;;5074757;28;19995;-70
2024/01/16 11:59:08;;;;;;;;;;;20.70;99.90;;;;;;5075099;28;20265;-71
2024/01/16 12:01:35;;;;;;;;;;;20.40;99.90;;;;;;5074617;28;20043;-70
2024/01/16 12:04:07;;;;;;;;;;;20.20;99.90;;;;;;5074117;28;19909;-70
2024/01/16 12:06:33;;;;;;;;;;;20.10;99.90;;;;;;5074408;28;19927;-69
2024/01/16 12:09:14;;;;;;;;;;;20.00;99.90;;;;;;5074751;28;19919;-70
2024/01/16 12:11:43;;;;;;;;;;;19.90;99.90;;;;;;5074353;28;19951;-71
2024/01/16 12:14:09;;;;;;;;;;;19.80;99.90;;;;;;5073235;28;20011;-70
2024/01/16 12:16:35;;;;;;;;;;;19.50;99.90;;;;;;5072763;28;19982;-67
2024/01/16 12:19:09;;;;;;;;;;;19.20;99.90;;;;;;5074961;28;19908;-70
2024/01/16 12:21:44;;;;;;;;;;;19.10;99.90;;;;;;5074952;28;19927;-70
2024/01/16 12:24:10;;;;;;;;;;;19.10;99.90;;;;;;5074831;28;19916;-72
2024/01/16 12:26:37;;;;;;;;;;;19.10;99.90;;;;;;5075107;28;19912;-71
2024/01/16 12:29:03;;;;;;;;;;;19.00;99.90;;;;;;5074660;28;19916;-70
2024/01/16 12:31:29;;;;;;;;;;;19.00;99.90;;;;;;5074840;28;19995;-72
2024/01/16 12:34:04;;;;;;;;;;;18.80;99.90;;;;;;5074526;28;19909;-70
2024/01/16 12:36:30;;;;;;;;;;;18.60;99.90;;;;;;5074147;28;19909;-70
2024/01/16 12:38:56;;;;;;;;;;;18.60;99.90;;;;;;5074109;28;19922;-70
2024/01/16 12:41:23;;;;;;;;;;;18.60;99.90;;;;;;5074454;28;20374;-70
2024/01/16 12:43:50;;;;;;;;;;;18.80;99.90;;;;;;5074113;28;19909;-71
2024/01/16 12:46:16;;;;;;;;;;;19.10;99.90;;;;;;5074071;28;19927;-70
2024/01/16 12:48:43;;;;;;;;;;;19.30;99.90;;;;;;5074037;28;19953;-70
2024/01/16 12:51:09;;;;;;;;;;;19.20;99.90;;;;;;5073553;28;19916;-71
2024/01/16 12:53:39;;;;;;;;;;;19.40;99.90;;;;;;5072171;28;20348;-70
2024/01/16 12:56:05;;;;;;;;;;;19.50;99.90;;;;;;5074156;28;20242;-70
2024/01/16 12:58:34;;;;;;;;;;;19.60;99.90;;;;;;5072545;28;19923;-70
2024/01/16 13:01:26;;;;;;;;;;;19.70;99.90;;;;;;5073871;28;19915;-69
2024/01/16 13:03:53;;;;;;;;;;;19.80;99.90;;;;;;5070436;28;19920;-69
2024/01/16 13:06:19;;;;;;;;;;;19.70;99.90;;;;;;5055777;28;19963;-70
2024/01/16 13:08:48;;;;;;;;;;;19.60;99.90;;;;;;5056121;28;20326;-70
2024/01/16 13:11:20;;;;;;;;;;;19.40;99.90;;;;;;5074246;28;19935;-70
2024/01/16 13:13:48;;;;;;;;;;;19.30;99.90;;;;;;5074458;28;19974;-74
2024/01/16 13:16:16;;;;;;;;;;;19.20;99.90;;;;;;5070003;28;19912;-68
2024/01/16 13:18:41;;;;;;;;;;;19.20;99.90;;;;;;5074852;28;19909;-69
2024/01/16 13:21:08;;;;;;;;;;;19.00;99.90;;;;;;5074645;28;19915;-70
2024/01/16 13:23:35;;;;;;;;;;;19.20;99.90;;;;;;5056337;28;20396;-70
2024/01/16 13:26:03;;;;;;;;;;;19.30;99.90;;;;;;5074304;28;19908;-69
2024/01/16 13:28:28;;;;;;;;;;;19.30;99.90;;;;;;5074640;28;20003;-69
2024/01/16 13:30:55;;;;;;;;;;;19.20;99.90;;;;;;5074332;28;20048;-69
2024/01/16 13:33:23;;;;;;;;;;;19.00;99.90;;;;;;5074261;28;19908;-70
2024/01/16 13:35:48;;;;;;;;;;;19.00;99.90;;;;;;5074192;28;19954;-70
2024/01/16 13:38:18;;;;;;;;;;;19.10;99.90;;;;;;5073642;28;20300;-70
2024/01/16 13:40:44;;;;;;;;;;;19.10;99.90;;;;;;5073077;28;19965;-69
2024/01/16 13:43:11;;;;;;;;;;;19.10;99.90;;;;;;5073160;28;19908;-69
2024/01/16 13:45:38;;;;;;;;;;;19.00;99.90;;;;;;5072528;28;20226;-69
2024/01/16 13:48:04;;;;;;;;;;;19.10;99.90;;;;;;5073002;28;19924;-69
2024/01/16 13:50:31;;;;;;;;;;;19.10;99.90;;;;;;5072927;28;19909;-70
2024/01/16 13:52:56;;;;;;;;;;;19.10;99.90;;;;;;5072896;28;19913;-69
2024/01/16 13:55:22;;;;;;;;;;;19.00;99.90;;;;;;5066887;28;19935;-68
2024/01/16 13:57:48;;;;;;;;;;;18.90;99.90;;;;;;5072955;28;19915;-68
2024/01/16 14:00:15;;;;;;;;;;;18.90;99.90;;;;;;5072968;28;19916;-72
2024/01/16 14:02:42;;;;;;;;;;;18.90;99.90;;;;;;5073335;28;20276;-72
2024/01/16 14:05:15;;;;;;;;;;;19.10;99.90;;;;;;5072529;28;19908;-72
2024/01/16 14:07:47;;;;;;;;;;;19.20;99.90;;;;;;5072458;28;20019;-70
2024/01/16 14:10:13;;;;;;;;;;;19.30;99.90;;;;;;5072654;28;19917;-71
2024/01/16 14:12:42;;;;;;;;;;;19.40;99.90;;;;;;5072452;28;19908;-69
2024/01/16 14:15:15;;;;;;;;;;;19.40;99.90;;;;;;5072451;28;19995;-69